Terminal Aerodrome Forecast
Issued by NWS

Home | Current Version | Previous Version | Text Only | Print | Product List | Glossary On
Versions: 1 2 3 4 5 6 7 8 9 10 11 12 13 14 15 16 17 18 19
000
FTUS43 KABR 200224 AAB
TAFPIR
TAF AMD
KPIR 200224Z 2002/2024 31013G30KT P6SM BKN100
     FM200500 31014G21KT P6SM VCSH BKN150
     FM200600 31014KT P6SM BKN150
     FM200900 28009KT P6SM FEW250
     FM201800 25013KT P6SM SKC
     FM202300 19010KT P6SM SKC=

USA.gov is the U.S. government's official web portal to all federal, state and local government web resources and services.